sensor_id;sensor_type;location;lat;lon;timestamp;temperature;humidity
32536;DHT22;18974;50.838;4.636;2023-12-22T00:00:30;9.80;99.90
32536;DHT22;18974;50.838;4.636;2023-12-22T00:02:56;9.80;99.90
32536;DHT22;18974;50.838;4.636;2023-12-22T00:05:21;9.90;99.90
32536;DHT22;18974;50.838;4.636;2023-12-22T00:07:47;9.90;99.90
32536;DHT22;18974;50.838;4.636;2023-12-22T00:10:13;9.80;99.90
32536;DHT22;18974;50.838;4.636;2023-12-22T00:12:39;9.60;99.90
32536;DHT22;18974;50.838;4.636;2023-12-22T00:15:05;9.50;99.90
32536;DHT22;18974;50.838;4.636;2023-12-22T00:17:31;9.50;99.90
32536;DHT22;18974;50.838;4.636;2023-12-22T00:19:57;9.50;99.90
32536;DHT22;18974;50.838;4.636;2023-12-22T00:22:25;9.50;99.90
32536;DHT22;18974;50.838;4.636;2023-12-22T00:24:51;9.50;99.90
32536;DHT22;18974;50.838;4.636;2023-12-22T00:27:17;9.50;99.90
32536;DHT22;18974;50.838;4.636;2023-12-22T00:29:42;9.50;99.90
32536;DHT22;18974;50.838;4.636;2023-12-22T00:32:08;9.50;99.90
32536;DHT22;18974;50.838;4.636;2023-12-22T00:34:35;9.40;99.90
32536;DHT22;18974;50.838;4.636;2023-12-22T00:37:01;9.50;99.90
32536;DHT22;18974;50.838;4.636;2023-12-22T00:39:27;9.50;99.90
32536;DHT22;18974;50.838;4.636;2023-12-22T00:41:53;9.50;99.90
32536;DHT22;18974;50.838;4.636;2023-12-22T00:44:19;9.50;99.90
32536;DHT22;18974;50.838;4.636;2023-12-22T00:46:45;9.40;99.90
32536;DHT22;18974;50.838;4.636;2023-12-22T00:49:10;9.50;99.90
32536;DHT22;18974;50.838;4.636;2023-12-22T00:51:36;9.50;99.90
32536;DHT22;18974;50.838;4.636;2023-12-22T00:54:02;9.40;99.90
32536;DHT22;18974;50.838;4.636;2023-12-22T00:56:28;9.50;99.90
32536;DHT22;18974;50.838;4.636;2023-12-22T00:58:54;9.40;99.90
32536;DHT22;18974;50.838;4.636;2023-12-22T01:01:19;9.40;99.90
32536;DHT22;18974;50.838;4.636;2023-12-22T01:03:46;9.40;99.90
32536;DHT22;18974;50.838;4.636;2023-12-22T01:06:12;9.40;99.90
32536;DHT22;18974;50.838;4.636;2023-12-22T01:08:38;9.50;99.90
32536;DHT22;18974;50.838;4.636;2023-12-22T01:11:04;9.40;99.90
32536;DHT22;18974;50.838;4.636;2023-12-22T01:13:29;9.50;99.90
32536;DHT22;18974;50.838;4.636;2023-12-22T01:15:55;9.50;99.90
32536;DHT22;18974;50.838;4.636;2023-12-22T01:18:21;9.50;99.90
32536;DHT22;18974;50.838;4.636;2023-12-22T01:20:46;9.50;99.90
32536;DHT22;18974;50.838;4.636;2023-12-22T01:23:12;9.50;99.90
32536;DHT22;18974;50.838;4.636;2023-12-22T01:25:38;9.50;99.90
32536;DHT22;18974;50.838;4.636;2023-12-22T01:28:03;9.50;99.90
32536;DHT22;18974;50.838;4.636;2023-12-22T01:30:29;9.60;99.90
32536;DHT22;18974;50.838;4.636;2023-12-22T01:32:55;9.60;99.90
32536;DHT22;18974;50.838;4.636;2023-12-22T01:35:20;9.70;99.90
32536;DHT22;18974;50.838;4.636;2023-12-22T01:37:46;9.60;99.90
32536;DHT22;18974;50.838;4.636;2023-12-22T01:40:14;9.60;99.90
32536;DHT22;18974;50.838;4.636;2023-12-22T01:42:39;9.60;99.90
32536;DHT22;18974;50.838;4.636;2023-12-22T01:45:06;9.70;99.90
32536;DHT22;18974;50.838;4.636;2023-12-22T01:47:32;9.70;99.90
32536;DHT22;18974;50.838;4.636;2023-12-22T01:49:58;9.80;99.90
32536;DHT22;18974;50.838;4.636;2023-12-22T01:52:25;9.80;99.90
32536;DHT22;18974;50.838;4.636;2023-12-22T01:54:51;9.90;99.90
32536;DHT22;18974;50.838;4.636;2023-12-22T01:57:18;9.90;99.90
32536;DHT22;18974;50.838;4.636;2023-12-22T01:59:46;10.00;99.90
32536;DHT22;18974;50.838;4.636;2023-12-22T02:02:12;9.90;99.90
32536;DHT22;18974;50.838;4.636;2023-12-22T02:04:37;9.90;99.90
32536;DHT22;18974;50.838;4.636;2023-12-22T02:07:05;9.90;99.90
32536;DHT22;18974;50.838;4.636;2023-12-22T02:09:33;9.80;99.90
32536;DHT22;18974;50.838;4.636;2023-12-22T02:11:59;9.90;99.90
32536;DHT22;18974;50.838;4.636;2023-12-22T02:14:25;9.80;99.90
32536;DHT22;18974;50.838;4.636;2023-12-22T02:17:06;9.80;99.90
32536;DHT22;18974;50.838;4.636;2023-12-22T02:19:43;9.80;99.90
32536;DHT22;18974;50.838;4.636;2023-12-22T02:22:11;9.70;99.90
32536;DHT22;18974;50.838;4.636;2023-12-22T02:24:41;9.70;99.90
32536;DHT22;18974;50.838;4.636;2023-12-22T02:29:49;9.80;99.90
32536;DHT22;18974;50.838;4.636;2023-12-22T02:32:22;9.70;99.90
32536;DHT22;18974;50.838;4.636;2023-12-22T02:34:51;9.70;99.90
32536;DHT22;18974;50.838;4.636;2023-12-22T02:37:18;9.70;99.90
32536;DHT22;18974;50.838;4.636;2023-12-22T02:39:44;9.80;99.90
32536;DHT22;18974;50.838;4.636;2023-12-22T02:42:10;9.80;99.90
32536;DHT22;18974;50.838;4.636;2023-12-22T02:44:38;9.80;99.90
32536;DHT22;18974;50.838;4.636;2023-12-22T02:47:03;9.80;99.90
32536;DHT22;18974;50.838;4.636;2023-12-22T02:49:29;9.90;99.90
32536;DHT22;18974;50.838;4.636;2023-12-22T02:51:55;10.00;99.90
32536;DHT22;18974;50.838;4.636;2023-12-22T02:54:20;9.90;99.90
32536;DHT22;18974;50.838;4.636;2023-12-22T02:56:47;9.90;99.90
32536;DHT22;18974;50.838;4.636;2023-12-22T02:59:12;9.90;99.90
32536;DHT22;18974;50.838;4.636;2023-12-22T03:01:38;10.00;99.90
32536;DHT22;18974;50.838;4.636;2023-12-22T03:04:04;10.00;99.90
32536;DHT22;18974;50.838;4.636;2023-12-22T03:06:29;10.10;99.90
32536;DHT22;18974;50.838;4.636;2023-12-22T03:08:55;10.00;99.90
32536;DHT22;18974;50.838;4.636;2023-12-22T03:11:21;10.00;99.90
32536;DHT22;18974;50.838;4.636;2023-12-22T03:13:46;9.90;99.90
32536;DHT22;18974;50.838;4.636;2023-12-22T03:16:12;9.90;99.90
32536;DHT22;18974;50.838;4.636;2023-12-22T03:18:38;9.90;99.90
32536;DHT22;18974;50.838;4.636;2023-12-22T03:21:05;9.80;99.90
32536;DHT22;18974;50.838;4.636;2023-12-22T03:23:30;9.70;99.90
32536;DHT22;18974;50.838;4.636;2023-12-22T03:25:56;9.70;99.90
32536;DHT22;18974;50.838;4.636;2023-12-22T03:28:22;9.70;99.90
32536;DHT22;18974;50.838;4.636;2023-12-22T03:30:47;9.70;99.90
32536;DHT22;18974;50.838;4.636;2023-12-22T03:33:13;9.70;99.90
32536;DHT22;18974;50.838;4.636;2023-12-22T03:35:39;9.80;99.90
32536;DHT22;18974;50.838;4.636;2023-12-22T03:38:04;9.80;99.90
32536;DHT22;18974;50.838;4.636;2023-12-22T03:40:30;9.80;99.90
32536;DHT22;18974;50.838;4.636;2023-12-22T03:42:56;9.70;99.90
32536;DHT22;18974;50.838;4.636;2023-12-22T03:45:21;9.60;99.90
32536;DHT22;18974;50.838;4.636;2023-12-22T03:47:47;9.60;99.90
32536;DHT22;18974;50.838;4.636;2023-12-22T03:50:13;9.70;99.90
32536;DHT22;18974;50.838;4.636;2023-12-22T03:52:38;9.80;99.90
32536;DHT22;18974;50.838;4.636;2023-12-22T03:55:04;9.80;99.90
32536;DHT22;18974;50.838;4.636;2023-12-22T03:57:30;9.80;99.90
32536;DHT22;18974;50.838;4.636;2023-12-22T03:59:55;9.80;99.90
32536;DHT22;18974;50.838;4.636;2023-12-22T04:02:21;9.90;99.90
32536;DHT22;18974;50.838;4.636;2023-12-22T04:04:47;9.90;99.90
32536;DHT22;18974;50.838;4.636;2023-12-22T04:07:13;9.90;99.90
32536;DHT22;18974;50.838;4.636;2023-12-22T04:09:39;9.80;99.90
32536;DHT22;18974;50.838;4.636;2023-12-22T04:12:05;9.80;99.90
32536;DHT22;18974;50.838;4.636;2023-12-22T04:14:30;9.80;99.90
32536;DHT22;18974;50.838;4.636;2023-12-22T04:16:56;9.80;99.90
32536;DHT22;18974;50.838;4.636;2023-12-22T04:19:22;9.90;99.90
32536;DHT22;18974;50.838;4.636;2023-12-22T04:21:48;9.90;99.90
32536;DHT22;18974;50.838;4.636;2023-12-22T04:24:14;9.90;99.90
32536;DHT22;18974;50.838;4.636;2023-12-22T04:26:40;9.80;99.90
32536;DHT22;18974;50.838;4.636;2023-12-22T04:29:05;9.80;99.90
32536;DHT22;18974;50.838;4.636;2023-12-22T04:31:31;9.70;99.90
32536;DHT22;18974;50.838;4.636;2023-12-22T04:33:56;9.60;99.90
32536;DHT22;18974;50.838;4.636;2023-12-22T04:36:22;9.60;99.90
32536;DHT22;18974;50.838;4.636;2023-12-22T04:38:48;9.50;99.90
32536;DHT22;18974;50.838;4.636;2023-12-22T04:41:13;9.50;99.90
32536;DHT22;18974;50.838;4.636;2023-12-22T04:43:39;9.40;99.90
32536;DHT22;18974;50.838;4.636;2023-12-22T04:46:05;9.50;99.90
32536;DHT22;18974;50.838;4.636;2023-12-22T04:48:30;9.50;99.90
32536;DHT22;18974;50.838;4.636;2023-12-22T04:50:58;9.60;99.90
32536;DHT22;18974;50.838;4.636;2023-12-22T04:53:24;9.50;99.90
32536;DHT22;18974;50.838;4.636;2023-12-22T04:55:50;9.60;99.90
32536;DHT22;18974;50.838;4.636;2023-12-22T04:58:16;9.60;99.90
32536;DHT22;18974;50.838;4.636;2023-12-22T05:00:41;9.60;99.90
32536;DHT22;18974;50.838;4.636;2023-12-22T05:03:07;9.60;99.90
32536;DHT22;18974;50.838;4.636;2023-12-22T05:05:33;9.50;99.90
32536;DHT22;18974;50.838;4.636;2023-12-22T05:07:59;9.50;99.90
32536;DHT22;18974;50.838;4.636;2023-12-22T05:10:24;9.50;99.90
32536;DHT22;18974;50.838;4.636;2023-12-22T05:12:50;9.60;99.90
32536;DHT22;18974;50.838;4.636;2023-12-22T05:15:15;9.60;99.90
32536;DHT22;18974;50.838;4.636;2023-12-22T05:17:41;9.60;99.90
32536;DHT22;18974;50.838;4.636;2023-12-22T05:20:07;9.50;99.90
32536;DHT22;18974;50.838;4.636;2023-12-22T05:22:36;9.50;99.90
32536;DHT22;18974;50.838;4.636;2023-12-22T05:25:02;9.50;99.90
32536;DHT22;18974;50.838;4.636;2023-12-22T05:27:27;9.40;99.90
32536;DHT22;18974;50.838;4.636;2023-12-22T05:29:53;9.50;99.90
32536;DHT22;18974;50.838;4.636;2023-12-22T05:32:19;9.40;99.90
32536;DHT22;18974;50.838;4.636;2023-12-22T05:34:44;9.50;99.90
32536;DHT22;18974;50.838;4.636;2023-12-22T05:37:10;9.50;99.90
32536;DHT22;18974;50.838;4.636;2023-12-22T05:39:37;9.40;99.90
32536;DHT22;18974;50.838;4.636;2023-12-22T05:42:02;9.40;99.90
32536;DHT22;18974;50.838;4.636;2023-12-22T05:44:28;9.60;99.90
32536;DHT22;18974;50.838;4.636;2023-12-22T05:46:56;9.70;99.90
32536;DHT22;18974;50.838;4.636;2023-12-22T05:49:22;9.70;99.90
32536;DHT22;18974;50.838;4.636;2023-12-22T05:51:49;9.70;99.90
32536;DHT22;18974;50.838;4.636;2023-12-22T05:54:15;9.60;99.90
32536;DHT22;18974;50.838;4.636;2023-12-22T05:56:42;9.70;99.90
32536;DHT22;18974;50.838;4.636;2023-12-22T05:59:08;9.70;99.90
32536;DHT22;18974;50.838;4.636;2023-12-22T06:01:33;9.70;99.90
32536;DHT22;18974;50.838;4.636;2023-12-22T06:03:59;9.70;99.90
32536;DHT22;18974;50.838;4.636;2023-12-22T06:06:24;9.80;99.90
32536;DHT22;18974;50.838;4.636;2023-12-22T06:08:50;9.70;99.90
32536;DHT22;18974;50.838;4.636;2023-12-22T06:11:16;9.80;99.90
32536;DHT22;18974;50.838;4.636;2023-12-22T06:13:42;9.80;99.90
32536;DHT22;18974;50.838;4.636;2023-12-22T06:16:14;9.90;99.90
32536;DHT22;18974;50.838;4.636;2023-12-22T06:18:40;9.80;99.90
32536;DHT22;18974;50.838;4.636;2023-12-22T06:21:07;9.80;99.90
32536;DHT22;18974;50.838;4.636;2023-12-22T06:23:33;9.80;99.90
32536;DHT22;18974;50.838;4.636;2023-12-22T06:25:58;9.90;99.90
32536;DHT22;18974;50.838;4.636;2023-12-22T06:28:24;9.90;99.90
32536;DHT22;18974;50.838;4.636;2023-12-22T06:30:50;9.90;99.90
32536;DHT22;18974;50.838;4.636;2023-12-22T06:33:15;9.80;99.90
32536;DHT22;18974;50.838;4.636;2023-12-22T06:35:41;9.80;99.90
32536;DHT22;18974;50.838;4.636;2023-12-22T06:38:07;9.80;99.90
32536;DHT22;18974;50.838;4.636;2023-12-22T06:40:34;9.80;99.90
32536;DHT22;18974;50.838;4.636;2023-12-22T06:43:00;9.70;99.90
32536;DHT22;18974;50.838;4.636;2023-12-22T06:45:25;9.80;99.90
32536;DHT22;18974;50.838;4.636;2023-12-22T06:47:51;9.80;99.90
32536;DHT22;18974;50.838;4.636;2023-12-22T06:50:17;9.80;99.90
32536;DHT22;18974;50.838;4.636;2023-12-22T06:52:42;9.80;99.90
32536;DHT22;18974;50.838;4.636;2023-12-22T06:55:08;9.80;99.90
32536;DHT22;18974;50.838;4.636;2023-12-22T06:57:34;9.80;99.90
32536;DHT22;18974;50.838;4.636;2023-12-22T06:59:59;9.80;99.90
32536;DHT22;18974;50.838;4.636;2023-12-22T07:02:25;9.80;99.90
32536;DHT22;18974;50.838;4.636;2023-12-22T07:07:52;9.70;99.90
32536;DHT22;18974;50.838;4.636;2023-12-22T07:10:17;9.70;99.90
32536;DHT22;18974;50.838;4.636;2023-12-22T07:12:43;9.70;99.90
32536;DHT22;18974;50.838;4.636;2023-12-22T07:15:08;9.60;99.90
32536;DHT22;18974;50.838;4.636;2023-12-22T07:17:34;9.70;99.90
32536;DHT22;18974;50.838;4.636;2023-12-22T07:20:00;9.70;99.90
32536;DHT22;18974;50.838;4.636;2023-12-22T07:22:28;9.70;99.90
32536;DHT22;18974;50.838;4.636;2023-12-22T07:24:54;9.70;99.90
32536;DHT22;18974;50.838;4.636;2023-12-22T07:27:21;9.80;99.90
32536;DHT22;18974;50.838;4.636;2023-12-22T07:29:47;9.80;99.90
32536;DHT22;18974;50.838;4.636;2023-12-22T07:32:12;9.80;99.90
32536;DHT22;18974;50.838;4.636;2023-12-22T07:34:38;9.80;99.90
32536;DHT22;18974;50.838;4.636;2023-12-22T07:37:04;9.80;99.90
32536;DHT22;18974;50.838;4.636;2023-12-22T07:39:32;9.80;99.90
32536;DHT22;18974;50.838;4.636;2023-12-22T07:41:58;9.70;99.90
32536;DHT22;18974;50.838;4.636;2023-12-22T07:44:23;9.70;99.90
32536;DHT22;18974;50.838;4.636;2023-12-22T07:46:59;9.80;99.90
32536;DHT22;18974;50.838;4.636;2023-12-22T07:49:25;9.70;99.90
32536;DHT22;18974;50.838;4.636;2023-12-22T07:51:52;9.80;99.90
32536;DHT22;18974;50.838;4.636;2023-12-22T07:54:18;9.80;99.90
32536;DHT22;18974;50.838;4.636;2023-12-22T07:56:44;9.90;99.90
32536;DHT22;18974;50.838;4.636;2023-12-22T07:59:09;10.00;99.90
32536;DHT22;18974;50.838;4.636;2023-12-22T08:01:35;9.90;99.90
32536;DHT22;18974;50.838;4.636;2023-12-22T08:04:01;9.90;99.90
32536;DHT22;18974;50.838;4.636;2023-12-22T08:06:26;10.00;99.90
32536;DHT22;18974;50.838;4.636;2023-12-22T08:08:52;10.00;99.90
32536;DHT22;18974;50.838;4.636;2023-12-22T08:11:20;10.00;99.90
32536;DHT22;18974;50.838;4.636;2023-12-22T08:13:47;10.00;99.90
32536;DHT22;18974;50.838;4.636;2023-12-22T08:16:13;10.00;99.90
32536;DHT22;18974;50.838;4.636;2023-12-22T08:18:38;10.00;99.90
32536;DHT22;18974;50.838;4.636;2023-12-22T08:21:04;10.00;99.90
32536;DHT22;18974;50.838;4.636;2023-12-22T08:23:31;10.10;99.90
32536;DHT22;18974;50.838;4.636;2023-12-22T08:25:57;10.10;99.90
32536;DHT22;18974;50.838;4.636;2023-12-22T08:28:23;10.10;99.90
32536;DHT22;18974;50.838;4.636;2023-12-22T08:30:49;10.00;99.90
32536;DHT22;18974;50.838;4.636;2023-12-22T08:33:16;10.00;99.90
32536;DHT22;18974;50.838;4.636;2023-12-22T08:35:42;10.00;99.90
32536;DHT22;18974;50.838;4.636;2023-12-22T08:38:07;10.00;99.90
32536;DHT22;18974;50.838;4.636;2023-12-22T08:40:33;10.00;99.90
32536;DHT22;18974;50.838;4.636;2023-12-22T08:42:59;10.00;99.90
32536;DHT22;18974;50.838;4.636;2023-12-22T08:45:26;10.00;99.90
32536;DHT22;18974;50.838;4.636;2023-12-22T08:47:55;10.00;99.90
32536;DHT22;18974;50.838;4.636;2023-12-22T08:50:21;9.90;99.90
32536;DHT22;18974;50.838;4.636;2023-12-22T08:52:46;10.00;99.90
32536;DHT22;18974;50.838;4.636;2023-12-22T08:55:12;10.00;99.90
32536;DHT22;18974;50.838;4.636;2023-12-22T08:57:39;10.10;99.90
32536;DHT22;18974;50.838;4.636;2023-12-22T09:00:05;10.00;99.90
32536;DHT22;18974;50.838;4.636;2023-12-22T09:02:31;10.10;99.90
32536;DHT22;18974;50.838;4.636;2023-12-22T09:04:57;10.00;99.90
32536;DHT22;18974;50.838;4.636;2023-12-22T09:07:23;10.10;99.90
32536;DHT22;18974;50.838;4.636;2023-12-22T09:09:50;10.10;99.90
32536;DHT22;18974;50.838;4.636;2023-12-22T09:12:15;10.00;99.90
32536;DHT22;18974;50.838;4.636;2023-12-22T09:14:41;10.10;99.90
32536;DHT22;18974;50.838;4.636;2023-12-22T09:17:07;10.10;99.90
32536;DHT22;18974;50.838;4.636;2023-12-22T09:19:33;10.10;99.90
32536;DHT22;18974;50.838;4.636;2023-12-22T09:21:59;10.20;99.90
32536;DHT22;18974;50.838;4.636;2023-12-22T09:24:25;10.20;99.90
32536;DHT22;18974;50.838;4.636;2023-12-22T09:26:51;10.30;99.90
32536;DHT22;18974;50.838;4.636;2023-12-22T09:29:17;10.20;99.90
32536;DHT22;18974;50.838;4.636;2023-12-22T09:31:43;10.20;99.90
32536;DHT22;18974;50.838;4.636;2023-12-22T09:34:09;10.20;99.90
32536;DHT22;18974;50.838;4.636;2023-12-22T09:36:34;10.20;99.90
32536;DHT22;18974;50.838;4.636;2023-12-22T09:39:00;10.30;99.90
32536;DHT22;18974;50.838;4.636;2023-12-22T09:41:26;10.30;99.90
32536;DHT22;18974;50.838;4.636;2023-12-22T09:43:52;10.30;99.90
32536;DHT22;18974;50.838;4.636;2023-12-22T09:46:20;10.40;99.90
32536;DHT22;18974;50.838;4.636;2023-12-22T09:48:49;10.30;99.90
32536;DHT22;18974;50.838;4.636;2023-12-22T09:51:17;10.30;99.90
32536;DHT22;18974;50.838;4.636;2023-12-22T09:53:44;10.30;99.90
32536;DHT22;18974;50.838;4.636;2023-12-22T09:56:11;10.30;99.90
32536;DHT22;18974;50.838;4.636;2023-12-22T09:58:37;10.40;99.90
32536;DHT22;18974;50.838;4.636;2023-12-22T10:01:04;10.30;99.90
32536;DHT22;18974;50.838;4.636;2023-12-22T10:03:33;10.40;99.90
32536;DHT22;18974;50.838;4.636;2023-12-22T10:05:59;10.40;99.90
32536;DHT22;18974;50.838;4.636;2023-12-22T10:08:26;10.50;99.90
32536;DHT22;18974;50.838;4.636;2023-12-22T10:10:52;10.50;99.90
32536;DHT22;18974;50.838;4.636;2023-12-22T10:13:19;10.50;99.90
32536;DHT22;18974;50.838;4.636;2023-12-22T10:15:45;10.60;99.90
32536;DHT22;18974;50.838;4.636;2023-12-22T10:18:12;10.60;99.90
32536;DHT22;18974;50.838;4.636;2023-12-22T10:20:39;10.70;99.90
32536;DHT22;18974;50.838;4.636;2023-12-22T10:23:05;10.70;99.90
32536;DHT22;18974;50.838;4.636;2023-12-22T10:25:31;10.80;99.90
32536;DHT22;18974;50.838;4.636;2023-12-22T10:27:58;10.90;99.90
32536;DHT22;18974;50.838;4.636;2023-12-22T10:30:24;11.00;99.90
32536;DHT22;18974;50.838;4.636;2023-12-22T10:32:53;11.10;99.90
32536;DHT22;18974;50.838;4.636;2023-12-22T10:35:22;11.10;99.90
32536;DHT22;18974;50.838;4.636;2023-12-22T10:37:47;11.10;99.90
32536;DHT22;18974;50.838;4.636;2023-12-22T10:40:14;11.10;99.90
32536;DHT22;18974;50.838;4.636;2023-12-22T10:42:42;11.10;99.90
32536;DHT22;18974;50.838;4.636;2023-12-22T10:45:08;11.10;99.90
32536;DHT22;18974;50.838;4.636;2023-12-22T10:47:34;11.20;99.90
32536;DHT22;18974;50.838;4.636;2023-12-22T10:50:03;11.20;99.90
32536;DHT22;18974;50.838;4.636;2023-12-22T10:52:32;11.10;99.90
32536;DHT22;18974;50.838;4.636;2023-12-22T10:54:58;11.10;99.90
32536;DHT22;18974;50.838;4.636;2023-12-22T10:57:24;11.00;99.90
32536;DHT22;18974;50.838;4.636;2023-12-22T10:59:53;10.90;99.90
32536;DHT22;18974;50.838;4.636;2023-12-22T11:02:22;10.90;99.90
32536;DHT22;18974;50.838;4.636;2023-12-22T11:05:03;10.80;99.90
32536;DHT22;18974;50.838;4.636;2023-12-22T11:07:33;10.90;99.90
32536;DHT22;18974;50.838;4.636;2023-12-22T11:10:05;10.90;99.90
32536;DHT22;18974;50.838;4.636;2023-12-22T11:12:38;11.00;99.90
32536;DHT22;18974;50.838;4.636;2023-12-22T11:15:05;10.90;99.90
32536;DHT22;18974;50.838;4.636;2023-12-22T11:17:32;10.80;99.90
32536;DHT22;18974;50.838;4.636;2023-12-22T11:19:59;10.80;99.90
32536;DHT22;18974;50.838;4.636;2023-12-22T11:22:25;10.80;99.90
32536;DHT22;18974;50.838;4.636;2023-12-22T11:24:52;10.70;99.90
32536;DHT22;18974;50.838;4.636;2023-12-22T11:27:19;10.80;99.90
32536;DHT22;18974;50.838;4.636;2023-12-22T11:29:50;10.80;99.90
32536;DHT22;18974;50.838;4.636;2023-12-22T11:32:17;10.80;99.90
32536;DHT22;18974;50.838;4.636;2023-12-22T11:34:44;10.80;99.90
32536;DHT22;18974;50.838;4.636;2023-12-22T11:37:15;10.80;99.90
32536;DHT22;18974;50.838;4.636;2023-12-22T11:39:44;10.80;99.90
32536;DHT22;18974;50.838;4.636;2023-12-22T11:42:14;10.80;99.90
32536;DHT22;18974;50.838;4.636;2023-12-22T11:44:41;10.90;99.90
32536;DHT22;18974;50.838;4.636;2023-12-22T11:47:08;10.80;99.90
32536;DHT22;18974;50.838;4.636;2023-12-22T11:49:35;10.80;99.90
32536;DHT22;18974;50.838;4.636;2023-12-22T11:54:52;10.90;99.90
32536;DHT22;18974;50.838;4.636;2023-12-22T11:59:55;10.90;99.90
32536;DHT22;18974;50.838;4.636;2023-12-22T12:02:22;10.90;99.90
32536;DHT22;18974;50.838;4.636;2023-12-22T12:04:48;10.90;99.90
32536;DHT22;18974;50.838;4.636;2023-12-22T12:10:12;10.90;99.90
32536;DHT22;18974;50.838;4.636;2023-12-22T12:12:38;10.90;99.90
32536;DHT22;18974;50.838;4.636;2023-12-22T12:15:09;10.90;99.90
32536;DHT22;18974;50.838;4.636;2023-12-22T12:17:41;11.00;99.90
32536;DHT22;18974;50.838;4.636;2023-12-22T12:20:09;11.00;99.90
32536;DHT22;18974;50.838;4.636;2023-12-22T12:22:36;11.10;99.90
32536;DHT22;18974;50.838;4.636;2023-12-22T12:25:07;11.00;99.90
32536;DHT22;18974;50.838;4.636;2023-12-22T12:27:35;11.00;99.90
32536;DHT22;18974;50.838;4.636;2023-12-22T12:30:14;11.00;99.90
32536;DHT22;18974;50.838;4.636;2023-12-22T12:32:43;11.10;99.90
32536;DHT22;18974;50.838;4.636;2023-12-22T12:35:12;11.20;99.90
32536;DHT22;18974;50.838;4.636;2023-12-22T12:37:38;11.30;99.90
32536;DHT22;18974;50.838;4.636;2023-12-22T12:40:07;11.40;99.90
32536;DHT22;18974;50.838;4.636;2023-12-22T12:42:35;11.50;99.90
32536;DHT22;18974;50.838;4.636;2023-12-22T12:45:07;11.50;99.90
32536;DHT22;18974;50.838;4.636;2023-12-22T12:47:33;11.40;99.90
32536;DHT22;18974;50.838;4.636;2023-12-22T12:50:02;11.40;99.90
32536;DHT22;18974;50.838;4.636;2023-12-22T12:52:28;11.40;99.90
32536;DHT22;18974;50.838;4.636;2023-12-22T12:54:54;11.30;99.90
32536;DHT22;18974;50.838;4.636;2023-12-22T12:57:21;11.20;99.90
32536;DHT22;18974;50.838;4.636;2023-12-22T12:59:50;11.20;99.90
32536;DHT22;18974;50.838;4.636;2023-12-22T13:02:19;11.30;99.90
32536;DHT22;18974;50.838;4.636;2023-12-22T13:04:49;11.20;99.90
32536;DHT22;18974;50.838;4.636;2023-12-22T13:07:24;11.10;99.90
32536;DHT22;18974;50.838;4.636;2023-12-22T13:09:50;11.10;99.90
32536;DHT22;18974;50.838;4.636;2023-12-22T13:12:16;11.10;99.90
32536;DHT22;18974;50.838;4.636;2023-12-22T13:14:42;11.10;99.90
32536;DHT22;18974;50.838;4.636;2023-12-22T13:17:08;11.00;99.90
32536;DHT22;18974;50.838;4.636;2023-12-22T13:19:35;11.00;99.90
32536;DHT22;18974;50.838;4.636;2023-12-22T13:22:01;11.10;99.90
32536;DHT22;18974;50.838;4.636;2023-12-22T13:24:27;11.00;99.90
32536;DHT22;18974;50.838;4.636;2023-12-22T13:27:01;11.00;99.90
32536;DHT22;18974;50.838;4.636;2023-12-22T13:29:27;10.90;99.90
32536;DHT22;18974;50.838;4.636;2023-12-22T13:31:54;10.90;99.90
32536;DHT22;18974;50.838;4.636;2023-12-22T13:34:20;10.90;99.90
32536;DHT22;18974;50.838;4.636;2023-12-22T13:36:45;10.80;99.90
32536;DHT22;18974;50.838;4.636;2023-12-22T13:39:11;10.80;99.90
32536;DHT22;18974;50.838;4.636;2023-12-22T13:41:41;10.80;99.90
32536;DHT22;18974;50.838;4.636;2023-12-22T13:44:11;10.80;99.90
32536;DHT22;18974;50.838;4.636;2023-12-22T13:46:37;10.90;99.90
32536;DHT22;18974;50.838;4.636;2023-12-22T13:49:07;10.80;99.90
32536;DHT22;18974;50.838;4.636;2023-12-22T13:51:40;10.70;99.90
32536;DHT22;18974;50.838;4.636;2023-12-22T13:54:06;10.70;99.90
32536;DHT22;18974;50.838;4.636;2023-12-22T13:56:33;10.70;99.90
32536;DHT22;18974;50.838;4.636;2023-12-22T13:59:01;10.70;99.90
32536;DHT22;18974;50.838;4.636;2023-12-22T14:01:27;10.80;99.90
32536;DHT22;18974;50.838;4.636;2023-12-22T14:03:53;10.80;99.90
32536;DHT22;18974;50.838;4.636;2023-12-22T14:06:21;10.80;99.90
32536;DHT22;18974;50.838;4.636;2023-12-22T14:08:47;10.70;99.90
32536;DHT22;18974;50.838;4.636;2023-12-22T14:11:12;10.70;99.90
32536;DHT22;18974;50.838;4.636;2023-12-22T14:13:38;10.70;99.90
32536;DHT22;18974;50.838;4.636;2023-12-22T14:16:06;10.70;99.90
32536;DHT22;18974;50.838;4.636;2023-12-22T14:18:32;10.70;99.90
32536;DHT22;18974;50.838;4.636;2023-12-22T14:20:58;10.70;99.90
32536;DHT22;18974;50.838;4.636;2023-12-22T14:23:26;10.70;99.90
32536;DHT22;18974;50.838;4.636;2023-12-22T14:25:52;10.60;99.90
32536;DHT22;18974;50.838;4.636;2023-12-22T14:28:18;10.60;99.90
32536;DHT22;18974;50.838;4.636;2023-12-22T14:30:44;10.60;99.90
32536;DHT22;18974;50.838;4.636;2023-12-22T14:33:10;10.60;99.90
32536;DHT22;18974;50.838;4.636;2023-12-22T14:35:36;10.60;99.90
32536;DHT22;18974;50.838;4.636;2023-12-22T14:38:02;10.70;99.90
32536;DHT22;18974;50.838;4.636;2023-12-22T14:40:28;10.70;99.90
32536;DHT22;18974;50.838;4.636;2023-12-22T14:42:54;10.80;99.90
32536;DHT22;18974;50.838;4.636;2023-12-22T14:45:20;10.80;99.90
32536;DHT22;18974;50.838;4.636;2023-12-22T14:47:45;10.80;99.90
32536;DHT22;18974;50.838;4.636;2023-12-22T14:50:11;10.80;99.90
32536;DHT22;18974;50.838;4.636;2023-12-22T14:52:37;10.80;99.90
32536;DHT22;18974;50.838;4.636;2023-12-22T14:55:06;10.80;99.90
32536;DHT22;18974;50.838;4.636;2023-12-22T14:57:32;10.80;99.90
32536;DHT22;18974;50.838;4.636;2023-12-22T14:59:59;10.80;99.90
32536;DHT22;18974;50.838;4.636;2023-12-22T15:02:25;10.80;99.90
32536;DHT22;18974;50.838;4.636;2023-12-22T15:04:51;10.80;99.90
32536;DHT22;18974;50.838;4.636;2023-12-22T15:07:17;10.80;99.90
32536;DHT22;18974;50.838;4.636;2023-12-22T15:09:43;10.80;99.90
32536;DHT22;18974;50.838;4.636;2023-12-22T15:12:11;10.80;99.90
32536;DHT22;18974;50.838;4.636;2023-12-22T15:14:36;10.80;99.90
32536;DHT22;18974;50.838;4.636;2023-12-22T15:17:02;10.80;99.90
32536;DHT22;18974;50.838;4.636;2023-12-22T15:19:28;10.80;99.90
32536;DHT22;18974;50.838;4.636;2023-12-22T15:21:54;10.80;99.90
32536;DHT22;18974;50.838;4.636;2023-12-22T15:24:20;10.90;99.90
32536;DHT22;18974;50.838;4.636;2023-12-22T15:26:46;10.90;99.90
32536;DHT22;18974;50.838;4.636;2023-12-22T15:29:12;11.10;99.90
32536;DHT22;18974;50.838;4.636;2023-12-22T15:31:37;11.20;99.90
32536;DHT22;18974;50.838;4.636;2023-12-22T15:34:03;11.30;99.90
32536;DHT22;18974;50.838;4.636;2023-12-22T15:36:30;11.20;99.90
32536;DHT22;18974;50.838;4.636;2023-12-22T15:38:56;11.20;99.90
32536;DHT22;18974;50.838;4.636;2023-12-22T15:41:21;11.10;99.90
32536;DHT22;18974;50.838;4.636;2023-12-22T15:43:47;11.10;99.90
32536;DHT22;18974;50.838;4.636;2023-12-22T15:46:15;11.20;99.90